createdAt,value
2018-11-21T00:00:55.122Z,1006.46
2018-11-21T00:01:55.121Z,1006.46
2018-11-21T00:02:55.106Z,1006.40
2018-11-21T00:03:55.115Z,1006.38
2018-11-21T00:04:55.119Z,1006.36
2018-11-21T00:07:55.119Z,1006.32
2018-11-21T00:09:55.123Z,1006.31
2018-11-21T00:10:55.124Z,1006.42
2018-11-21T00:11:55.123Z,1006.42
2018-11-21T00:12:55.121Z,1006.44
2018-11-21T00:13:55.131Z,1006.49
2018-11-21T00:14:55.129Z,1006.52
2018-11-21T00:15:55.134Z,1006.57
2018-11-21T00:16:55.132Z,1006.52
2018-11-21T00:17:55.163Z,1006.52
2018-11-21T00:19:55.149Z,1006.51
2018-11-21T00:20:55.157Z,1006.51
2018-11-21T00:21:55.143Z,1006.57
2018-11-21T00:22:55.141Z,1006.59
2018-11-21T00:23:55.154Z,1006.57
2018-11-21T00:24:55.169Z,1006.56
2018-11-21T00:25:55.144Z,1006.54
2018-11-21T00:26:55.158Z,1006.55
2018-11-21T00:27:55.137Z,1006.52
2018-11-21T00:28:55.144Z,1006.54
2018-11-21T00:29:55.147Z,1006.52
2018-11-21T00:30:55.144Z,1006.43
2018-11-21T00:31:55.143Z,1006.45
2018-11-21T00:32:55.166Z,1006.39
2018-11-21T00:33:55.162Z,1006.47
2018-11-21T00:34:55.157Z,1006.41
2018-11-21T00:35:55.165Z,1006.40
2018-11-21T00:36:55.161Z,1006.41
2018-11-21T00:37:55.174Z,1006.41
2018-11-21T00:38:55.158Z,1006.38
2018-11-21T00:39:55.163Z,1006.43
2018-11-21T00:40:55.159Z,1006.41
2018-11-21T00:41:55.161Z,1006.41
2018-11-21T00:42:55.170Z,1006.41
2018-11-21T00:43:55.175Z,1006.38
2018-11-21T00:45:55.183Z,1006.35
2018-11-21T00:46:55.159Z,1006.36
2018-11-21T00:47:55.164Z,1006.37
2018-11-21T00:48:55.165Z,1006.35
2018-11-21T00:49:55.170Z,1006.31
2018-11-21T00:50:55.186Z,1006.35
2018-11-21T00:51:55.178Z,1006.28
2018-11-21T00:52:55.185Z,1006.32
2018-11-21T00:53:55.194Z,1006.29
2018-11-21T00:54:55.171Z,1006.27
2018-11-21T00:55:55.178Z,1006.26
2018-11-21T00:56:55.176Z,1006.26
2018-11-21T00:57:55.185Z,1006.27
2018-11-21T00:58:55.220Z,1006.25
2018-11-21T00:59:55.178Z,1006.28
2018-11-21T01:00:55.187Z,1006.26
2018-11-21T01:01:55.191Z,1006.28
2018-11-21T01:02:55.169Z,1006.30
2018-11-21T01:04:55.178Z,1006.29
2018-11-21T01:05:55.184Z,1006.34
2018-11-21T01:06:55.184Z,1006.39
2018-11-21T01:07:55.191Z,1006.43
2018-11-21T01:08:55.193Z,1006.39
2018-11-21T01:09:55.200Z,1006.41
2018-11-21T01:10:55.205Z,1006.38
2018-11-21T01:11:55.188Z,1006.43
2018-11-21T01:12:55.196Z,1006.43
2018-11-21T01:13:55.202Z,1006.44
2018-11-21T01:14:55.192Z,1006.45
2018-11-21T01:15:55.194Z,1006.47
2018-11-21T01:16:55.197Z,1006.51
2018-11-21T01:17:55.197Z,1006.50
2018-11-21T01:18:55.204Z,1006.55
2018-11-21T01:19:55.197Z,1006.60
2018-11-21T01:21:55.197Z,1006.62
2018-11-21T01:22:55.199Z,1006.65
2018-11-21T01:23:55.205Z,1006.67
2018-11-21T01:24:55.201Z,1006.68
2018-11-21T01:25:55.212Z,1006.67
2018-11-21T01:26:55.212Z,1006.72
2018-11-21T01:27:55.208Z,1006.73
2018-11-21T01:28:55.210Z,1006.79
2018-11-21T01:29:55.217Z,1006.80
2018-11-21T01:31:55.207Z,1006.77
2018-11-21T01:32:55.215Z,1006.79
2018-11-21T01:33:55.223Z,1006.80
2018-11-21T01:34:55.219Z,1006.84
2018-11-21T01:35:55.217Z,1006.83
2018-11-21T01:36:55.217Z,1006.90
2018-11-21T01:37:55.210Z,1006.97
2018-11-21T01:38:55.225Z,1006.97
2018-11-21T01:39:55.226Z,1006.95
2018-11-21T01:40:55.221Z,1006.93
2018-11-21T01:41:55.220Z,1006.90
2018-11-21T01:43:55.238Z,1006.86
2018-11-21T01:44:55.232Z,1006.88
2018-11-21T01:45:55.225Z,1006.83
2018-11-21T01:46:55.223Z,1006.90
2018-11-21T01:47:55.233Z,1006.88
2018-11-21T01:48:55.227Z,1006.90
2018-11-21T01:49:55.234Z,1006.90
2018-11-21T01:50:55.227Z,1006.94
2018-11-21T01:51:55.235Z,1006.97
2018-11-21T01:52:55.318Z,1006.96
2018-11-21T01:53:55.241Z,1006.97
2018-11-21T01:55:55.243Z,1006.94
2018-11-21T01:56:55.229Z,1006.96
2018-11-21T01:57:55.239Z,1006.97
2018-11-21T01:58:55.245Z,1006.96
2018-11-21T01:59:55.244Z,1007.00
2018-11-21T02:00:55.247Z,1006.98
2018-11-21T02:01:55.247Z,1006.97
2018-11-21T02:03:55.247Z,1006.92
2018-11-21T02:04:55.266Z,1006.91
2018-11-21T02:05:55.249Z,1006.97
2018-11-21T02:06:55.260Z,1006.94
2018-11-21T02:07:55.242Z,1006.95
2018-11-21T02:08:55.246Z,1006.93
2018-11-21T02:09:55.249Z,1006.91
2018-11-21T02:10:55.262Z,1006.94
2018-11-21T02:11:55.255Z,1006.93
2018-11-21T02:12:55.257Z,1006.94
2018-11-21T02:13:55.256Z,1006.96
2018-11-21T02:14:55.254Z,1007.02
2018-11-21T02:16:55.253Z,1007.05
2018-11-21T02:17:55.259Z,1007.07
2018-11-21T02:18:55.269Z,1007.05
2018-11-21T02:19:55.257Z,1007.11
2018-11-21T02:20:55.265Z,1007.09
2018-11-21T02:21:55.269Z,1007.10
2018-11-21T02:22:55.273Z,1007.12
2018-11-21T02:23:55.275Z,1007.07
2018-11-21T02:24:55.267Z,1007.06
2018-11-21T02:25:55.267Z,1007.09
2018-11-21T02:26:55.280Z,1007.11
2018-11-21T02:27:55.286Z,1007.13
2018-11-21T02:28:55.268Z,1007.11
2018-11-21T02:29:55.276Z,1007.18
2018-11-21T02:30:55.287Z,1007.18
2018-11-21T02:31:55.276Z,1007.19
2018-11-21T02:32:55.268Z,1007.24
2018-11-21T02:33:55.271Z,1007.18
2018-11-21T02:34:55.270Z,1007.18
2018-11-21T02:35:55.274Z,1007.22
2018-11-21T02:36:55.280Z,1007.24
2018-11-21T02:37:55.286Z,1007.28
2018-11-21T02:38:55.310Z,1007.30
2018-11-21T02:39:55.288Z,1007.28
2018-11-21T02:40:55.297Z,1007.26
2018-11-21T02:41:55.297Z,1007.23
2018-11-21T02:42:55.288Z,1007.22
2018-11-21T02:43:55.308Z,1007.28
2018-11-21T02:44:55.290Z,1007.24
2018-11-21T02:45:55.291Z,1007.28
2018-11-21T02:46:55.300Z,1007.25
2018-11-21T02:47:55.312Z,1007.25
2018-11-21T02:48:55.319Z,1007.22
2018-11-21T02:49:55.285Z,1007.19
2018-11-21T02:50:55.301Z,1007.19
2018-11-21T02:51:55.297Z,1007.17
2018-11-21T02:52:55.313Z,1007.16
2018-11-21T02:53:55.309Z,1007.18
2018-11-21T02:54:55.317Z,1007.20
2018-11-21T02:55:55.320Z,1007.26
2018-11-21T02:56:55.304Z,1007.24
2018-11-21T02:57:55.302Z,1007.24
2018-11-21T02:58:55.312Z,1007.20
2018-11-21T02:59:55.313Z,1007.26
2018-11-21T03:00:55.321Z,1007.25
2018-11-21T03:01:55.313Z,1007.19
2018-11-21T03:02:55.297Z,1007.16
2018-11-21T03:03:55.316Z,1007.18
2018-11-21T03:04:55.314Z,1007.18
2018-11-21T03:05:55.310Z,1007.15
2018-11-21T03:06:55.315Z,1007.16
2018-11-21T03:07:55.316Z,1007.09
2018-11-21T03:08:55.311Z,1007.11
2018-11-21T03:09:55.320Z,1007.08
2018-11-21T03:10:55.333Z,1007.08
2018-11-21T03:11:55.319Z,1007.10
2018-11-21T03:12:55.320Z,1007.09
2018-11-21T03:13:55.334Z,1007.09
2018-11-21T03:14:55.327Z,1007.07
2018-11-21T03:15:55.332Z,1007.08
2018-11-21T03:16:55.334Z,1007.00
2018-11-21T03:17:55.332Z,1007.03
2018-11-21T03:18:55.329Z,1007.08
2018-11-21T03:19:55.333Z,1006.99
2018-11-21T03:20:55.339Z,1007.08
2018-11-21T03:21:55.340Z,1007.08
2018-11-21T03:22:55.329Z,1007.06
2018-11-21T03:23:55.340Z,1007.03
2018-11-21T03:24:55.333Z,1007.06
2018-11-21T03:25:55.337Z,1007.10
2018-11-21T03:26:55.342Z,1007.14
2018-11-21T03:27:55.348Z,1007.20
2018-11-21T03:28:55.343Z,1007.20
2018-11-21T03:29:55.359Z,1007.24
2018-11-21T03:30:55.367Z,1007.20
2018-11-21T03:31:55.352Z,1007.24
2018-11-21T03:32:55.354Z,1007.27
2018-11-21T03:33:57.798Z,1007.34
2018-11-21T03:34:55.372Z,1007.34
2018-11-21T03:35:55.355Z,1007.40
2018-11-21T03:36:55.361Z,1007.36
2018-11-21T03:37:55.375Z,1007.37
2018-11-21T03:38:55.362Z,1007.39
2018-11-21T03:39:55.350Z,1007.39
2018-11-21T03:40:55.356Z,1007.39
2018-11-21T03:41:55.370Z,1007.41
2018-11-21T03:42:55.360Z,1007.40
2018-11-21T03:43:55.366Z,1007.42
2018-11-21T03:44:55.368Z,1007.44
2018-11-21T03:45:55.375Z,1007.50
2018-11-21T03:46:55.386Z,1007.53
2018-11-21T03:47:55.386Z,1007.51
2018-11-21T03:48:55.373Z,1007.57
2018-11-21T03:49:55.376Z,1007.52
2018-11-21T03:50:55.377Z,1007.52
2018-11-21T03:51:55.380Z,1007.60
2018-11-21T03:52:55.377Z,1007.64
2018-11-21T03:53:55.381Z,1007.66
2018-11-21T03:54:55.375Z,1007.68
2018-11-21T03:55:55.390Z,1007.68
2018-11-21T03:56:55.374Z,1007.74
2018-11-21T03:57:55.389Z,1007.72
2018-11-21T03:58:55.374Z,1007.69
2018-11-21T03:59:55.384Z,1007.69
2018-11-21T04:00:55.387Z,1007.70
2018-11-21T04:01:55.392Z,1007.73
2018-11-21T04:02:55.397Z,1007.76
2018-11-21T04:03:55.413Z,1007.88
2018-11-21T04:04:55.414Z,1007.87
2018-11-21T04:05:55.387Z,1007.94
2018-11-21T04:06:55.398Z,1007.98
2018-11-21T04:07:55.393Z,1007.91
2018-11-21T04:08:55.397Z,1007.86
2018-11-21T04:09:55.407Z,1007.84
2018-11-21T04:10:55.409Z,1007.80
2018-11-21T04:11:55.403Z,1007.74
2018-11-21T04:12:55.409Z,1007.71
2018-11-21T04:13:55.397Z,1007.76
2018-11-21T04:14:55.432Z,1007.77
2018-11-21T04:15:55.409Z,1007.87
2018-11-21T04:16:55.403Z,1007.89
2018-11-21T04:17:55.408Z,1007.98
2018-11-21T04:18:55.404Z,1007.99
2018-11-21T04:19:55.411Z,1007.99
2018-11-21T04:20:55.413Z,1008.00
2018-11-21T04:21:55.422Z,1008.00
2018-11-21T04:22:55.418Z,1008.04
2018-11-21T04:23:55.423Z,1007.98
2018-11-21T04:24:55.415Z,1007.99
2018-11-21T04:25:55.416Z,1008.06
2018-11-21T04:26:55.415Z,1008.11
2018-11-21T04:27:55.418Z,1008.12
2018-11-21T04:28:55.420Z,1008.13
2018-11-21T04:29:55.421Z,1008.16
2018-11-21T04:30:55.425Z,1008.09
2018-11-21T04:31:55.422Z,1008.13
2018-11-21T04:32:55.435Z,1008.07
2018-11-21T04:33:55.428Z,1008.10
2018-11-21T04:34:55.426Z,1008.11
2018-11-21T04:35:55.427Z,1008.15
2018-11-21T04:36:55.430Z,1008.23
2018-11-21T04:37:55.434Z,1008.29
2018-11-21T04:38:55.436Z,1008.37
2018-11-21T04:39:55.437Z,1008.41
2018-11-21T04:40:55.431Z,1008.42
2018-11-21T04:41:55.432Z,1008.54
2018-11-21T04:42:55.443Z,1008.53
2018-11-21T04:43:55.438Z,1008.49
2018-11-21T04:45:55.466Z,1008.47
2018-11-21T04:46:55.443Z,1008.45
2018-11-21T04:47:55.994Z,1008.50
2018-11-21T04:48:55.440Z,1008.49
2018-11-21T04:49:55.437Z,1008.49
2018-11-21T04:50:55.449Z,1008.50
2018-11-21T04:51:55.451Z,1008.47
2018-11-21T04:52:55.445Z,1008.48
2018-11-21T04:53:55.454Z,1008.47
2018-11-21T04:54:55.451Z,1008.42
2018-11-21T04:55:55.452Z,1008.46
2018-11-21T04:56:55.456Z,1008.48
2018-11-21T04:57:55.467Z,1008.51
2018-11-21T04:58:55.455Z,1008.52
2018-11-21T04:59:55.461Z,1008.51
2018-11-21T05:00:55.461Z,1008.54
2018-11-21T05:01:55.459Z,1008.55
2018-11-21T05:02:55.465Z,1008.50
2018-11-21T05:03:55.472Z,1008.52
2018-11-21T05:04:55.471Z,1008.47
2018-11-21T05:05:55.469Z,1008.52
2018-11-21T05:06:55.482Z,1008.48
2018-11-21T05:07:55.476Z,1008.51
2018-11-21T05:08:55.467Z,1008.53
2018-11-21T05:09:55.466Z,1008.51
2018-11-21T05:10:55.473Z,1008.58
2018-11-21T05:11:55.474Z,1008.55
2018-11-21T05:13:55.494Z,1008.60
2018-11-21T05:14:55.485Z,1008.59
2018-11-21T05:15:55.490Z,1008.64
2018-11-21T05:16:55.492Z,1008.66
2018-11-21T05:17:55.480Z,1008.67
2018-11-21T05:18:55.481Z,1008.65
2018-11-21T05:19:55.485Z,1008.66
2018-11-21T05:20:55.489Z,1008.71
2018-11-21T05:21:55.489Z,1008.71
2018-11-21T05:22:55.487Z,1008.71
2018-11-21T05:23:55.480Z,1008.68
2018-11-21T05:24:55.496Z,1008.70
2018-11-21T05:25:55.489Z,1008.70
2018-11-21T05:26:55.485Z,1008.67
2018-11-21T05:27:55.495Z,1008.65
2018-11-21T05:28:55.495Z,1008.68
2018-11-21T05:29:55.495Z,1008.68
2018-11-21T05:30:55.508Z,1008.65
2018-11-21T05:31:55.506Z,1008.66
2018-11-21T05:32:55.505Z,1008.68
2018-11-21T05:33:55.501Z,1008.66
2018-11-21T05:34:55.505Z,1008.64
2018-11-21T05:35:55.498Z,1008.63
2018-11-21T05:36:55.552Z,1008.65
2018-11-21T05:37:55.506Z,1008.67
2018-11-21T05:38:55.507Z,1008.71
2018-11-21T05:39:55.510Z,1008.69
2018-11-21T05:40:55.527Z,1008.71
2018-11-21T05:41:55.517Z,1008.71
2018-11-21T05:42:55.511Z,1008.69
2018-11-21T05:43:55.510Z,1008.76
2018-11-21T05:44:55.517Z,1008.74
2018-11-21T05:45:55.555Z,1008.73
2018-11-21T05:46:55.510Z,1008.74
2018-11-21T05:47:55.524Z,1008.73
2018-11-21T05:48:55.531Z,1008.75
2018-11-21T05:50:55.533Z,1008.79
2018-11-21T05:51:55.520Z,1008.84
2018-11-21T05:52:55.522Z,1008.80
2018-11-21T05:53:55.528Z,1008.79
2018-11-21T05:54:55.524Z,1008.83
2018-11-21T05:55:55.530Z,1008.81
2018-11-21T05:56:55.534Z,1008.88
2018-11-21T05:57:55.577Z,1008.87
2018-11-21T05:58:55.531Z,1008.88
2018-11-21T05:59:55.529Z,1008.91
2018-11-21T06:00:55.536Z,1008.90
2018-11-21T06:01:55.530Z,1008.93
2018-11-21T06:02:55.555Z,1008.95
2018-11-21T06:03:55.544Z,1009.04
2018-11-21T06:04:55.544Z,1009.03
2018-11-21T06:05:55.538Z,1009.01
2018-11-21T06:06:55.542Z,1009.02
2018-11-21T06:07:55.545Z,1009.02
2018-11-21T06:08:55.546Z,1009.06
2018-11-21T06:09:55.565Z,1009.08
2018-11-21T06:10:55.544Z,1009.03
2018-11-21T06:11:55.547Z,1009.09
2018-11-21T06:12:55.545Z,1009.07
2018-11-21T06:13:55.544Z,1009.08
2018-11-21T06:14:55.560Z,1009.11
2018-11-21T06:15:55.547Z,1009.10
2018-11-21T06:16:55.545Z,1009.14
2018-11-21T06:17:55.558Z,1009.13
2018-11-21T06:18:55.597Z,1009.19
2018-11-21T06:20:55.594Z,1009.20
2018-11-21T06:21:55.555Z,1009.19
2018-11-21T06:22:55.665Z,1009.20
2018-11-21T06:23:55.580Z,1009.21
2018-11-21T06:24:55.594Z,1009.22
2018-11-21T06:25:55.565Z,1009.23
2018-11-21T06:26:55.582Z,1009.25
2018-11-21T06:27:55.577Z,1009.26
2018-11-21T06:28:55.570Z,1009.25
2018-11-21T06:29:55.604Z,1009.31
2018-11-21T06:30:55.563Z,1009.31
2018-11-21T06:31:55.580Z,1009.34
2018-11-21T06:32:55.576Z,1009.36
2018-11-21T06:33:55.577Z,1009.37
2018-11-21T06:34:55.578Z,1009.39
2018-11-21T06:35:55.576Z,1009.44
2018-11-21T06:36:55.569Z,1009.44
2018-11-21T06:37:55.575Z,1009.47
2018-11-21T06:38:55.581Z,1009.46
2018-11-21T06:39:55.579Z,1009.47
2018-11-21T06:40:55.586Z,1009.42
2018-11-21T06:41:55.591Z,1009.41
2018-11-21T06:42:55.592Z,1009.43
2018-11-21T06:43:55.608Z,1009.44
2018-11-21T06:44:55.594Z,1009.41
2018-11-21T06:45:55.587Z,1009.47
2018-11-21T06:46:55.591Z,1009.46
2018-11-21T06:47:55.594Z,1009.51
2018-11-21T06:48:55.595Z,1009.52
2018-11-21T06:49:55.593Z,1009.56
2018-11-21T06:50:55.583Z,1009.57
2018-11-21T06:51:55.597Z,1009.62
2018-11-21T06:52:55.596Z,1009.63
2018-11-21T06:53:55.592Z,1009.60
2018-11-21T06:54:55.590Z,1009.67
2018-11-21T06:55:55.594Z,1009.66
2018-11-21T06:56:55.635Z,1009.69
2018-11-21T06:57:55.605Z,1009.65
2018-11-21T06:58:55.615Z,1009.68
2018-11-21T06:59:55.608Z,1009.70
2018-11-21T07:00:55.610Z,1009.72
2018-11-21T07:01:55.613Z,1009.69
2018-11-21T07:02:55.609Z,1009.69
2018-11-21T07:03:55.600Z,1009.71
2018-11-21T07:04:55.619Z,1009.71
2018-11-21T07:05:55.615Z,1009.67
2018-11-21T07:06:55.615Z,1009.67
2018-11-21T07:07:55.613Z,1009.67
2018-11-21T07:08:55.619Z,1009.68
2018-11-21T07:09:55.618Z,1009.68
2018-11-21T07:10:55.627Z,1009.73
2018-11-21T07:11:55.619Z,1009.71
2018-11-21T07:12:55.627Z,1009.74
2018-11-21T07:13:55.625Z,1009.78
2018-11-21T07:14:55.628Z,1009.74
2018-11-21T07:15:55.629Z,1009.72
2018-11-21T07:16:55.628Z,1009.77
2018-11-21T07:17:55.629Z,1009.75
2018-11-21T07:18:55.636Z,1009.71
2018-11-21T07:19:55.640Z,1009.72
2018-11-21T07:20:55.628Z,1009.74
2018-11-21T07:21:55.784Z,1009.73
2018-11-21T07:22:55.635Z,1009.71
2018-11-21T07:23:55.627Z,1009.73
2018-11-21T07:24:55.650Z,1009.71
2018-11-21T07:25:55.641Z,1009.73
2018-11-21T07:26:55.656Z,1009.79
2018-11-21T07:27:55.660Z,1009.83
2018-11-21T07:28:55.640Z,1009.80
2018-11-21T07:29:55.651Z,1009.79
2018-11-21T07:30:55.656Z,1009.86
2018-11-21T07:32:55.648Z,1009.92
2018-11-21T07:33:55.647Z,1009.96
2018-11-21T07:34:55.654Z,1009.97
2018-11-21T07:35:55.655Z,1009.99
2018-11-21T07:36:55.662Z,1010.02
2018-11-21T07:37:55.654Z,1010.06
2018-11-21T07:38:55.655Z,1010.11
2018-11-21T07:39:55.655Z,1010.11
2018-11-21T07:40:55.667Z,1010.17
2018-11-21T07:41:55.656Z,1010.20
2018-11-21T07:42:55.707Z,1010.16
2018-11-21T07:43:55.665Z,1010.20
2018-11-21T07:44:55.683Z,1010.24
2018-11-21T07:45:55.664Z,1010.26
2018-11-21T07:46:55.666Z,1010.29
2018-11-21T07:47:55.668Z,1010.28
2018-11-21T07:48:55.665Z,1010.29
2018-11-21T07:49:55.674Z,1010.36
2018-11-21T07:50:55.672Z,1010.37
2018-11-21T07:51:55.672Z,1010.37
2018-11-21T07:52:55.680Z,1010.42
2018-11-21T07:53:55.676Z,1010.43
2018-11-21T07:54:55.694Z,1010.43
2018-11-21T07:55:55.678Z,1010.43
2018-11-21T07:56:55.680Z,1010.49
2018-11-21T07:57:55.686Z,1010.50
2018-11-21T07:58:55.692Z,1010.52
2018-11-21T07:59:55.685Z,1010.51
2018-11-21T08:00:55.689Z,1010.56
2018-11-21T08:01:55.692Z,1010.58
2018-11-21T08:02:55.696Z,1010.61
2018-11-21T08:03:55.705Z,1010.56
2018-11-21T08:04:55.690Z,1010.55
2018-11-21T08:05:55.697Z,1010.57
2018-11-21T08:06:55.693Z,1010.55
2018-11-21T08:07:55.701Z,1010.58
2018-11-21T08:08:55.705Z,1010.58
2018-11-21T08:09:55.702Z,1010.57
2018-11-21T08:10:55.729Z,1010.56
2018-11-21T08:11:55.706Z,1010.57
2018-11-21T08:12:55.728Z,1010.57
2018-11-21T08:13:55.716Z,1010.59
2018-11-21T08:14:55.718Z,1010.55
2018-11-21T08:15:55.718Z,1010.63
2018-11-21T08:16:55.723Z,1010.68
2018-11-21T08:17:55.735Z,1010.64
2018-11-21T08:18:55.726Z,1010.68
2018-11-21T08:19:55.727Z,1010.72
2018-11-21T08:20:55.728Z,1010.74
2018-11-21T08:21:55.740Z,1010.72
2018-11-21T08:22:55.728Z,1010.67
2018-11-21T08:23:55.805Z,1010.71
2018-11-21T08:24:55.744Z,1010.68
2018-11-21T08:25:55.753Z,1010.72
2018-11-21T08:26:55.741Z,1010.71
2018-11-21T08:27:55.745Z,1010.76
2018-11-21T08:28:55.782Z,1010.75
2018-11-21T08:29:55.752Z,1010.76
2018-11-21T08:30:55.745Z,1010.75
2018-11-21T08:31:55.769Z,1010.83
2018-11-21T08:32:55.759Z,1010.80
2018-11-21T08:33:55.762Z,1010.87
2018-11-21T08:34:55.767Z,1010.84
2018-11-21T08:35:55.767Z,1010.96
2018-11-21T08:36:55.775Z,1010.93
2018-11-21T08:37:55.778Z,1010.91
2018-11-21T08:38:55.778Z,1010.93
2018-11-21T08:39:55.803Z,1010.95
2018-11-21T08:40:55.778Z,1010.93
2018-11-21T08:41:55.782Z,1010.97
2018-11-21T08:42:55.779Z,1010.99
2018-11-21T08:44:55.788Z,1010.99
2018-11-21T08:45:55.791Z,1010.97
2018-11-21T08:46:55.796Z,1010.93
2018-11-21T08:47:55.798Z,1010.93
2018-11-21T08:48:55.801Z,1010.97
2018-11-21T08:49:55.800Z,1010.91
2018-11-21T08:50:55.808Z,1010.95
2018-11-21T08:51:55.799Z,1010.90
2018-11-21T08:52:55.811Z,1010.97
2018-11-21T08:53:55.817Z,1010.95
2018-11-21T08:54:55.812Z,1010.93
2018-11-21T08:55:55.818Z,1010.96
2018-11-21T08:56:55.845Z,1010.95
2018-11-21T08:57:55.823Z,1010.91
2018-11-21T08:58:55.832Z,1011.02
2018-11-21T08:59:55.829Z,1010.96
2018-11-21T09:00:55.838Z,1010.93
2018-11-21T09:01:55.837Z,1010.99
2018-11-21T09:02:55.839Z,1011.05
2018-11-21T09:03:55.842Z,1011.13
2018-11-21T09:04:55.852Z,1011.19
2018-11-21T09:05:55.850Z,1011.22
2018-11-21T09:06:55.840Z,1011.11
2018-11-21T09:07:55.862Z,1011.16
2018-11-21T09:08:55.857Z,1011.23
2018-11-21T09:09:55.875Z,1011.21
2018-11-21T09:10:55.871Z,1011.22
2018-11-21T09:11:55.868Z,1011.25
2018-11-21T09:12:55.875Z,1011.22
2018-11-21T09:13:55.886Z,1011.29
2018-11-21T09:14:55.893Z,1011.40
2018-11-21T09:15:55.885Z,1011.46
2018-11-21T09:16:55.881Z,1011.40
2018-11-21T09:17:55.893Z,1011.53
2018-11-21T09:18:55.889Z,1011.44
2018-11-21T09:19:55.897Z,1011.53
2018-11-21T09:20:55.900Z,1011.54
2018-11-21T09:21:55.908Z,1011.54
2018-11-21T09:22:55.906Z,1011.63
2018-11-21T09:23:55.909Z,1011.62
2018-11-21T09:24:55.919Z,1011.62
2018-11-21T09:25:55.926Z,1011.66
2018-11-21T09:26:55.928Z,1011.74
2018-11-21T09:28:55.943Z,1011.55
2018-11-21T09:29:55.938Z,1011.55
2018-11-21T09:30:55.945Z,1011.58
2018-11-21T09:31:55.962Z,1011.63
2018-11-21T09:32:55.956Z,1011.68
2018-11-21T09:33:55.967Z,1011.60
2018-11-21T09:34:55.969Z,1011.57
2018-11-21T09:35:55.970Z,1011.55
2018-11-21T09:36:55.982Z,1011.45
2018-11-21T09:37:55.974Z,1011.51
2018-11-21T09:38:55.979Z,1011.49
2018-11-21T09:39:55.984Z,1011.43
2018-11-21T09:40:55.991Z,1011.46
2018-11-21T09:41:55.990Z,1011.51
2018-11-21T09:42:56.001Z,1011.43
2018-11-21T09:43:56.005Z,1011.43
2018-11-21T09:44:56.006Z,1011.34
2018-11-21T09:45:56.018Z,1011.43
2018-11-21T09:46:56.015Z,1011.42
2018-11-21T09:47:56.027Z,1011.43
2018-11-21T09:48:56.029Z,1011.56
2018-11-21T09:49:56.029Z,1011.55
2018-11-21T09:50:56.037Z,1011.55
2018-11-21T09:51:56.042Z,1011.55
2018-11-21T09:52:56.049Z,1011.72
2018-11-21T09:53:56.045Z,1011.76
2018-11-21T09:54:56.054Z,1011.77
2018-11-21T09:55:56.059Z,1011.80
2018-11-21T09:56:56.062Z,1011.64
2018-11-21T09:57:56.069Z,1011.71
2018-11-21T09:58:56.066Z,1011.56
2018-11-21T09:59:56.074Z,1011.54
2018-11-21T10:00:56.072Z,1011.51
2018-11-21T10:01:56.078Z,1011.62
2018-11-21T10:02:56.085Z,1011.56
2018-11-21T10:03:56.436Z,1011.58
2018-11-21T10:04:56.096Z,1011.57
2018-11-21T10:05:56.111Z,1011.54
2018-11-21T10:06:56.124Z,1011.58
2018-11-21T10:07:56.103Z,1011.56
2018-11-21T10:08:56.111Z,1011.45
2018-11-21T10:09:56.118Z,1011.49
2018-11-21T10:10:56.127Z,1011.57
2018-11-21T10:11:56.116Z,1011.59
2018-11-21T10:12:56.138Z,1011.58
2018-11-21T10:13:56.135Z,1011.58
2018-11-21T10:14:56.159Z,1011.56
2018-11-21T10:15:56.621Z,1011.52
2018-11-21T10:16:56.152Z,1011.62
2018-11-21T10:17:56.158Z,1011.55
2018-11-21T10:18:56.155Z,1011.48
2018-11-21T10:19:56.160Z,1011.48
2018-11-21T10:20:56.162Z,1011.50
2018-11-21T10:21:56.173Z,1011.57
2018-11-21T10:22:56.165Z,1011.64
2018-11-21T10:23:56.169Z,1011.67
2018-11-21T10:24:56.175Z,1011.79
2018-11-21T10:25:56.180Z,1011.98
2018-11-21T10:26:56.176Z,1011.77
2018-11-21T10:27:56.211Z,1011.68
2018-11-21T10:28:56.187Z,1011.82
2018-11-21T10:29:56.187Z,1011.86
2018-11-21T10:30:56.191Z,1011.90
2018-11-21T10:31:56.191Z,1011.98
2018-11-21T10:32:56.196Z,1012.00
2018-11-21T10:33:56.206Z,1012.01
2018-11-21T10:34:56.207Z,1011.97
2018-11-21T10:35:56.255Z,1011.86
2018-11-21T10:36:56.214Z,1011.76
2018-11-21T10:37:56.223Z,1011.69
2018-11-21T10:38:56.226Z,1011.66
2018-11-21T10:39:56.236Z,1011.78
2018-11-21T10:40:56.239Z,1011.90
2018-11-21T10:41:56.231Z,1011.90
2018-11-21T10:42:56.248Z,1011.74
2018-11-21T10:43:56.249Z,1011.82
2018-11-21T10:44:56.267Z,1011.85
2018-11-21T10:45:56.255Z,1011.89
2018-11-21T10:46:56.258Z,1011.90
2018-11-21T10:47:56.265Z,1011.99
2018-11-21T10:48:56.267Z,1012.00
2018-11-21T10:49:56.270Z,1012.17
2018-11-21T10:50:56.284Z,1012.19
2018-11-21T10:51:56.284Z,1012.15
2018-11-21T10:52:56.274Z,1012.15
2018-11-21T10:53:56.283Z,1012.12
2018-11-21T10:54:56.372Z,1012.03
2018-11-21T10:55:56.296Z,1012.04
2018-11-21T10:56:56.304Z,1012.02
2018-11-21T10:57:56.310Z,1012.07
2018-11-21T10:58:56.318Z,1011.94
2018-11-21T10:59:56.330Z,1011.83
2018-11-21T11:00:56.321Z,1011.83
2018-11-21T11:01:56.347Z,1011.77
2018-11-21T11:02:56.333Z,1011.80
2018-11-21T11:03:56.336Z,1011.82
2018-11-21T11:04:56.340Z,1011.83
2018-11-21T11:05:56.352Z,1011.75
2018-11-21T11:06:56.351Z,1011.83
2018-11-21T11:07:56.400Z,1011.79
2018-11-21T11:08:56.392Z,1011.75
2018-11-21T11:09:56.368Z,1011.68
2018-11-21T11:10:56.368Z,1011.70
2018-11-21T11:11:56.438Z,1011.70
2018-11-21T11:12:56.381Z,1011.77
2018-11-21T11:13:56.384Z,1011.80
2018-11-21T11:14:56.388Z,1011.81
2018-11-21T11:15:56.398Z,1011.80
2018-11-21T11:16:56.406Z,1011.81
2018-11-21T11:17:59.518Z,1011.91
2018-11-21T11:18:56.408Z,1011.95
2018-11-21T11:19:56.417Z,1011.87
2018-11-21T11:20:56.420Z,1011.88
2018-11-21T11:21:56.435Z,1011.91
2018-11-21T11:22:56.431Z,1011.85
2018-11-21T11:23:56.420Z,1011.82
2018-11-21T11:24:56.428Z,1011.90
2018-11-21T11:25:56.434Z,1011.92
2018-11-21T11:26:56.441Z,1011.98
2018-11-21T11:27:56.447Z,1011.95
2018-11-21T11:28:56.453Z,1011.94
2018-11-21T11:29:56.455Z,1011.98
2018-11-21T11:30:56.464Z,1012.07
2018-11-21T11:31:56.459Z,1012.03
2018-11-21T11:32:56.515Z,1012.08
2018-11-21T11:33:56.476Z,1012.02
2018-11-21T11:34:56.491Z,1011.96
2018-11-21T11:35:56.483Z,1011.95
2018-11-21T11:36:56.483Z,1011.93
2018-11-21T11:37:56.488Z,1011.92
2018-11-21T11:38:56.493Z,1011.93
2018-11-21T11:39:56.494Z,1011.98
2018-11-21T11:40:56.502Z,1011.99
2018-11-21T11:41:56.506Z,1011.96
2018-11-21T11:42:56.504Z,1011.97
2018-11-21T11:43:56.530Z,1011.98
2018-11-21T11:44:56.519Z,1011.98
2018-11-21T11:45:56.512Z,1011.92
2018-11-21T11:46:56.524Z,1011.94
2018-11-21T11:47:56.519Z,1011.94
2018-11-21T11:48:56.526Z,1011.99
2018-11-21T11:49:56.533Z,1012.01
2018-11-21T11:50:56.534Z,1012.03
2018-11-21T11:51:56.551Z,1012.02
2018-11-21T11:52:56.533Z,1012.00
2018-11-21T11:53:56.541Z,1012.03
2018-11-21T11:54:56.551Z,1011.98
2018-11-21T11:55:56.555Z,1012.02
2018-11-21T11:56:56.548Z,1012.03
2018-11-21T11:57:56.560Z,1012.04
2018-11-21T11:58:56.561Z,1012.06
2018-11-21T11:59:56.565Z,1012.02
2018-11-21T12:00:57.480Z,1012.00
2018-11-21T12:02:56.574Z,1011.97
2018-11-21T12:03:57.849Z,1011.93
2018-11-21T12:04:56.592Z,1011.93
2018-11-21T12:05:56.606Z,1011.94
2018-11-21T12:06:56.598Z,1011.91
2018-11-21T12:07:56.595Z,1011.89
2018-11-21T12:08:56.607Z,1011.90
2018-11-21T12:09:56.609Z,1011.93
2018-11-21T12:10:56.610Z,1011.93
2018-11-21T12:11:56.613Z,1011.93
2018-11-21T12:12:56.621Z,1011.91
2018-11-21T12:13:56.619Z,1011.88
2018-11-21T12:14:56.621Z,1011.83
2018-11-21T12:15:56.634Z,1011.83
2018-11-21T12:16:56.625Z,1011.82
2018-11-21T12:17:56.632Z,1011.75
2018-11-21T12:18:56.635Z,1011.82
2018-11-21T12:19:56.635Z,1011.81
2018-11-21T12:20:56.642Z,1011.84
2018-11-21T12:21:56.678Z,1011.88
2018-11-21T12:22:56.647Z,1011.93
2018-11-21T12:23:56.660Z,1011.86
2018-11-21T12:24:56.668Z,1011.92
2018-11-21T12:25:56.674Z,1011.93